< Typhoon 196818 1968 Season Typhoon 196820 >
Typhoon 196819 (GLORIA)
General InformationTrack Information on Google Maps || Disaster Info.ResourceGoogle EarthGE AnimationAtom FeedGeoJSON
Detalied Best Track (Time Zone = UTC)
Year Month Day Hour Lat. Long. Pressure (hPa) Wind (kt) Class Image Chart
1968 10 12 06 7.0 142.2 1006 0 2 -- Chart
1968 10 12 12 7.5 141.7 1008 0 2 -- Chart
1968 10 12 18 7.8 141.3 1005 0 2 -- Chart
1968 10 13 00 8.4 140.7 1006 0 2 -- Chart
1968 10 13 06 9.0 140.1 1004 0 2 -- Chart
1968 10 13 12 9.6 139.6 1005 0 2 -- Chart
1968 10 13 18 10.0 139.0 1004 0 2 -- Chart
1968 10 14 00 10.1 138.0 1004 0 2 -- Chart
1968 10 14 06 10.5 136.8 1004 0 2 -- Chart
1968 10 14 12 10.8 136.3 1002 0 2 -- Chart
1968 10 14 18 11.2 135.7 1000 0 2 -- Chart
1968 10 15 00 11.4 135.4 996 0 2 -- Chart
1968 10 15 06 11.8 135.1 995 0 2 -- Chart
1968 10 15 12 12.4 135.0 994 0 2 -- Chart
1968 10 15 18 13.2 135.0 994 0 2 -- Chart
1968 10 16 00 13.9 135.0 994 0 2 -- Chart
1968 10 16 06 14.7 134.9 992 0 2 -- Chart
1968 10 16 12 14.9 134.8 990 0 2 -- Chart
1968 10 16 18 15.3 134.6 988 0 2 -- Chart
1968 10 17 00 15.5 134.2 985 0 9 -- Chart
1968 10 17 06 16.3 133.2 980 0 9 -- Chart
1968 10 17 12 17.0 133.0 975 0 9 -- Chart
1968 10 17 18 17.4 133.0 970 0 9 -- Chart
1968 10 18 00 17.7 133.0 965 0 9 -- Chart
1968 10 18 06 18.2 133.0 960 0 9 -- Chart
1968 10 18 12 18.6 133.0 955 0 9 -- Chart
1968 10 18 18 19.1 132.9 955 0 9 -- Chart
1968 10 19 00 19.6 132.8 955 0 9 -- Chart
1968 10 19 06 20.1 132.8 960 0 9 -- Chart
1968 10 19 12 20.9 132.8 965 0 9 -- Chart
1968 10 19 18 21.6 132.4 965 0 9 -- Chart
1968 10 20 00 22.1 132.2 965 0 9 -- Chart
1968 10 20 06 22.7 131.9 965 0 9 -- Chart
1968 10 20 12 23.1 131.8 965 0 9 -- Chart
1968 10 20 18 23.5 132.5 965 0 9 -- Chart
1968 10 21 00 23.8 132.6 965 0 9 -- Chart
1968 10 21 06 24.3 132.9 965 0 9 -- Chart
1968 10 21 12 24.6 133.0 965 0 9 -- Chart
1968 10 21 18 24.8 133.1 965 0 9 -- Chart
1968 10 22 00 25.4 133.2 970 0 9 -- Chart
1968 10 22 06 25.8 133.2 975 0 9 -- Chart
1968 10 22 12 26.3 133.3 980 0 9 -- Chart
1968 10 22 18 25.9 133.0 975 0 9 -- Chart
1968 10 23 00 25.8 133.4 975 0 9 -- Chart
1968 10 23 06 26.3 133.8 980 0 9 -- Chart
1968 10 23 12 26.8 134.4 980 0 9 -- Chart
1968 10 23 18 27.6 135.0 980 0 9 -- Chart
1968 10 24 00 28.4 135.8 985 0 9 -- Chart
1968 10 24 06 29.4 137.5 985 0 9 -- Chart
1968 10 24 12 30.5 139.7 985 0 9 -- Chart
1968 10 24 18 31.6 141.6 986 0 2 -- Chart
1968 10 25 00 33.0 145.0 990 0 6 -- Chart
Japan Meteorological Agency Best Track Data | Correction Date : 1989-06-01
< Typhoon 196818 1968 Season Typhoon 196820 >

Help